This is the latest recevied weather packets stored in our database for station/object SP1BMW-13. If no packets are shown the sender has not sent any weather packets the latest 10 day(s).
| Time | Temp. | Humidity | Pressure | Rain* | Wind** | Luminosity | Snow |
|---|---|---|---|---|---|---|---|
| 1787943978 | 21.11° C | 77% | 1007.7 hPa | 0 mm | 0.45 m/s, 25° | 0 W/m² | - |
| 1787943918 | 21.11° C | 77% | 1007.6 hPa | 0 mm | 0.89 m/s, 39° | 0 W/m² | - |
| 1787943858 | 21.11° C | 77% | 1007.3 hPa | 0 mm | 0.89 m/s, 108° | 0 W/m² | - |
| 1787943798 | 21.11° C | 77% | 1007.6 hPa | 0 mm | 0.45 m/s, 89° | 0 W/m² | - |
| 1787943738 | 21.11° C | 77% | 1007.6 hPa | 0 mm | 1.34 m/s, 74° | 0 W/m² | - |
| 1787943678 | 21.11° C | 77% | 1007.7 hPa | 0 mm | 0.45 m/s, 2° | 0 W/m² | - |
| 1787943618 | 21.11° C | 77% | 1007.7 hPa | 0 mm | 0.45 m/s, 32° | 0 W/m² | - |
| 1787943559 | 21.11° C | 77% | 1007.6 hPa | 0 mm | 0.45 m/s, 25° | 0 W/m² | - |
| 1787943498 | 21.11° C | 77% | 1007.7 hPa | 0 mm | 0.45 m/s, 53° | 0 W/m² | - |
| 1787943438 | 21.11° C | 77% | 1007.5 hPa | 0 mm | 0.45 m/s, 89° | 0 W/m² | - |
| 1787943378 | 21.11° C | 77% | 1007.7 hPa | 0 mm | 0 m/s | 0 W/m² | - |
| 1787943318 | 21.11° C | 77% | 1007.6 hPa | 0 mm | 0.45 m/s, 45° | 0 W/m² | - |
| 1787943258 | 21.11° C | 77% | 1007.5 hPa | 0 mm | 0.45 m/s, 40° | 0 W/m² | - |
| 1787943198 | 21.11° C | 77% | 1007.8 hPa | 0 mm | 0.45 m/s, 31° | 0 W/m² | - |
| 1787943138 | 21.11° C | 77% | 1007.7 hPa | 0 mm | 0 m/s | 0 W/m² | - |
| 1787943079 | 21.11° C | 77% | 1007.7 hPa | 0 mm | 0.45 m/s, 37° | 0 W/m² | - |
| 1787943018 | 21.11° C | 77% | 1007.7 hPa | 0 mm | 0.45 m/s, 39° | 0 W/m² | - |
| 1787942958 | 21.11° C | 77% | 1007.8 hPa | 0 mm | 0.45 m/s, 52° | 0 W/m² | - |
| 1787942898 | 21.11° C | 77% | 1007.6 hPa | 0 mm | 0 m/s | 0 W/m² | - |
| 1787942838 | 21.11° C | 77% | 1007.8 hPa | 0 mm | 0.45 m/s, 73° | 0 W/m² | - |
| 1787942778 | 21.11° C | 77% | 1007.7 hPa | 0 mm | 0 m/s | 0 W/m² | - |
| 1787942718 | 21.11° C | 77% | 1007.7 hPa | 0 mm | 0.89 m/s, 44° | 0 W/m² | - |
| 1787942658 | 21.11° C | 77% | 1007.7 hPa | 0 mm | 0 m/s | 0 W/m² | - |
| 1787942598 | 21.11° C | 77% | 1007.8 hPa | 0 mm | 0 m/s | 0 W/m² | - |
| 1787942538 | 21.11° C | 76% | 1007.9 hPa | 0 mm | 0 m/s | 0 W/m² | - |
* Rain latest hour (hover to see other rain measurements)
** Current wind speed in m/s (hover to see current wind gust speed)